Time;durP1;ratioP1;P1;durP2;ratioP2;P2;SDS_P1;SDS_P2;PMS_P1;PMS_P2;Temp;Humidity;BMP_temperature;BMP_pressure;BME280_temperature;BME280_humidity;BME280_pressure;Samples;Min_cycle;Max_cycle;Signal;HPM_P1;HPM_P2
2021/11/01 00:00:14;;;;;;;19.52;3.05;;;10.10;90.20;;;;;;5046074;28;20065;-64
2021/11/01 00:02:41;;;;;;;13.48;1.48;;;10.10;90.10;;;;;;5038294;28;20053;-64
2021/11/01 00:05:08;;;;;;;14.82;2.05;;;10.10;90.10;;;;;;5043842;28;20045;-65
2021/11/01 00:07:35;;;;;;;12.57;1.65;;;10.10;90.20;;;;;;5045680;28;20110;-65
2021/11/01 00:10:05;;;;;;;9.65;1.70;;;10.10;90.10;;;;;;5046963;28;20049;-65
2021/11/01 00:12:32;;;;;;;9.90;1.75;;;10.10;90.00;;;;;;5031916;28;20100;-64
2021/11/01 00:15:00;;;;;;;12.98;1.77;;;10.00;90.10;;;;;;5043381;28;20091;-64
2021/11/01 00:17:26;;;;;;;10.75;1.48;;;10.00;90.00;;;;;;5033004;28;20045;-65
2021/11/01 00:19:53;;;;;;;13.30;1.98;;;10.00;90.00;;;;;;5045003;28;20049;-64
2021/11/01 00:22:21;;;;;;;9.25;2.17;;;10.00;89.90;;;;;;5039805;28;20111;-65
2021/11/01 00:24:48;;;;;;;22.73;3.33;;;10.00;90.00;;;;;;5048084;28;20103;-65
2021/11/01 00:27:15;;;;;;;10.35;2.58;;;10.00;89.60;;;;;;5039537;28;20452;-64
2021/11/01 00:29:42;;;;;;;6.97;3.33;;;9.90;89.90;;;;;;5046804;28;20056;-64
2021/11/01 00:32:09;;;;;;;8.25;1.45;;;9.90;89.80;;;;;;5043115;28;20041;-64
2021/11/01 00:34:36;;;;;;;9.45;1.25;;;9.90;89.80;;;;;;5044303;28;20067;-65
2021/11/01 00:37:03;;;;;;;9.15;1.30;;;9.90;89.90;;;;;;5044419;28;20087;-64
2021/11/01 00:39:31;;;;;;;11.02;1.63;;;9.90;90.00;;;;;;5041600;28;20063;-64
2021/11/01 00:42:01;;;;;;;11.35;1.80;;;9.90;90.00;;;;;;5032421;28;20049;-65
2021/11/01 00:44:27;;;;;;;10.32;1.85;;;9.80;90.00;;;;;;5043626;28;20862;-64
2021/11/01 00:46:57;;;;;;;16.38;2.92;;;9.90;90.00;;;;;;5043531;28;20093;-63
2021/11/01 00:49:25;;;;;;;5.13;2.00;;;9.80;90.20;;;;;;5037782;28;20088;-64
2021/11/01 00:51:54;;;;;;;18.98;2.10;;;9.90;90.30;;;;;;5046545;28;20124;-64
2021/11/01 00:54:22;;;;;;;5.57;1.27;;;9.80;90.20;;;;;;5037158;28;20133;-64
2021/11/01 00:56:49;;;;;;;9.15;1.45;;;9.80;90.30;;;;;;5041398;28;20374;-63
2021/11/01 00:59:17;;;;;;;14.77;1.52;;;9.80;90.30;;;;;;5043337;28;20081;-65
2021/11/01 01:01:44;;;;;;;10.95;2.40;;;9.80;90.30;;;;;;5043172;28;20103;-65
2021/11/01 01:04:11;;;;;;;12.88;1.65;;;9.80;90.40;;;;;;5044267;28;20053;-64
2021/11/01 01:06:37;;;;;;;15.43;1.63;;;9.90;90.50;;;;;;5035171;28;20473;-65
2021/11/01 01:09:04;;;;;;;15.00;1.95;;;9.80;90.50;;;;;;5039097;28;20088;-64
2021/11/01 01:11:31;;;;;;;6.13;1.45;;;9.80;90.60;;;;;;5044933;28;20053;-65
2021/11/01 01:13:58;;;;;;;9.15;1.63;;;9.80;90.60;;;;;;5040324;28;20041;-63
2021/11/01 01:16:26;;;;;;;14.18;3.28;;;9.90;90.60;;;;;;5037094;28;20053;-65
2021/11/01 01:18:56;;;;;;;18.95;2.85;;;9.90;90.60;;;;;;5042646;28;20447;-65
2021/11/01 01:24:09;;;;;;;12.45;1.77;;;9.90;90.60;;;;;;5040109;28;20052;-65
2021/11/01 01:26:36;;;;;;;16.50;2.53;;;9.90;90.60;;;;;;5038243;28;20081;-64
2021/11/01 01:29:04;;;;;;;7.50;1.08;;;9.90;90.50;;;;;;5037520;28;20083;-64
2021/11/01 01:31:32;;;;;;;10.85;1.70;;;9.90;90.50;;;;;;5046356;28;20160;-63
2021/11/01 01:33:59;;;;;;;6.75;1.15;;;10.00;90.50;;;;;;5039081;28;20454;-65
2021/11/01 01:36:26;;;;;;;16.33;2.17;;;9.80;90.50;;;;;;5041623;28;20045;-65
2021/11/01 01:38:53;;;;;;;12.00;1.95;;;9.80;90.30;;;;;;5039064;28;20099;-64
2021/11/01 01:41:23;;;;;;;9.05;2.05;;;9.80;90.40;;;;;;5044899;28;20514;-66
2021/11/01 01:43:53;;;;;;;13.10;1.80;;;9.80;90.50;;;;;;5047720;28;20049;-65
2021/11/01 01:46:21;;;;;;;15.65;1.85;;;9.80;90.60;;;;;;5042149;28;20087;-64
2021/11/01 01:48:49;;;;;;;15.95;2.38;;;9.80;90.60;;;;;;5053577;28;20053;-64
2021/11/01 01:51:16;;;;;;;9.27;1.90;;;9.80;90.70;;;;;;5039880;28;20110;-62
2021/11/01 01:53:44;;;;;;;15.63;3.67;;;9.80;90.70;;;;;;5049788;28;20095;-63
2021/11/01 01:56:11;;;;;;;10.38;2.03;;;9.80;90.60;;;;;;5042519;28;20103;-64
2021/11/01 01:58:49;;;;;;;13.95;2.10;;;9.80;90.60;;;;;;5041182;28;20076;-64
2021/11/01 02:01:16;;;;;;;17.70;2.50;;;9.90;90.60;;;;;;5040654;28;20056;-63
2021/11/01 02:03:49;;;;;;;10.98;2.25;;;9.90;90.50;;;;;;5050783;28;20434;-64
2021/11/01 02:07:09;;;;;;;24.20;4.15;;;9.90;90.50;;;;;;5042438;28;20077;-64
2021/11/01 02:09:47;;;;;;;9.75;1.95;;;9.90;90.20;;;;;;5042065;28;20075;-63
2021/11/01 02:12:20;;;;;;;12.85;2.85;;;9.90;90.50;;;;;;5024789;28;20048;-64
2021/11/01 02:14:50;;;;;;;18.63;3.35;;;9.90;90.20;;;;;;5044823;28;20110;-65
2021/11/01 02:17:20;;;;;;;19.98;2.25;;;9.90;90.30;;;;;;4695327;28;9999737;-64
2021/11/01 02:19:47;;;;;;;12.70;2.30;;;10.00;90.20;;;;;;5046502;28;20083;-64
2021/11/01 02:22:22;;;;;;;12.38;4.35;;;9.90;90.20;;;;;;5040414;28;20068;-65
2021/11/01 02:25:08;;;;;;;;;;;10.00;90.50;;;;;;5043668;28;20083;-63
2021/11/01 02:27:37;;;;;;;13.07;1.65;;;10.00;90.20;;;;;;5042665;28;20591;-65
2021/11/01 02:30:05;;;;;;;15.60;2.60;;;9.90;90.40;;;;;;5043625;28;20038;-64
2021/11/01 02:32:33;;;;;;;16.20;3.35;;;9.90;90.30;;;;;;5047965;28;20084;-65
2021/11/01 02:35:00;;;;;;;13.93;1.75;;;9.90;90.30;;;;;;5048162;28;20156;-64
2021/11/01 02:37:27;;;;;;;12.63;1.90;;;9.90;90.50;;;;;;5047703;28;20056;-64
2021/11/01 02:39:56;;;;;;;8.93;1.52;;;9.90;90.50;;;;;;5034263;28;20395;-63
2021/11/01 02:42:25;;;;;;;14.27;2.40;;;9.90;90.60;;;;;;5040450;28;20045;-63
2021/11/01 02:44:56;;;;;;;18.63;1.88;;;9.90;90.70;;;;;;5037706;28;20042;-64
2021/11/01 02:47:23;;;;;;;9.68;1.63;;;9.90;91.00;;;;;;5040036;28;20107;-64
2021/11/01 02:49:50;;;;;;;16.98;3.38;;;9.80;90.70;;;;;;5036848;28;20041;-63
2021/11/01 02:52:17;;;;;;;9.38;1.50;;;9.90;90.90;;;;;;5044086;28;20045;-64
2021/11/01 02:54:44;;;;;;;16.15;2.00;;;9.80;90.80;;;;;;5048001;28;20117;-66
2021/11/01 02:57:12;;;;;;;12.90;1.67;;;9.80;90.80;;;;;;5042338;28;20084;-64
2021/11/01 02:59:39;;;;;;;8.45;2.15;;;9.80;90.80;;;;;;5039367;28;20046;-65
2021/11/01 03:02:06;;;;;;;11.63;1.90;;;9.80;90.80;;;;;;5045065;28;20125;-63
2021/11/01 03:04:33;;;;;;;10.23;1.80;;;9.80;90.80;;;;;;5044611;28;20045;-64
2021/11/01 03:07:00;;;;;;;14.93;1.70;;;9.80;90.80;;;;;;5040533;28;20041;-63
2021/11/01 03:09:29;;;;;;;4.95;1.45;;;9.80;90.80;;;;;;5042605;28;20077;-64
2021/11/01 03:11:57;;;;;;;11.30;1.60;;;9.70;90.80;;;;;;5044965;28;20114;-64
2021/11/01 03:14:33;;;;;;;13.10;1.75;;;9.70;90.70;;;;;;5036410;28;20049;-64
2021/11/01 03:17:07;;;;;;;13.40;1.90;;;9.70;90.70;;;;;;5044067;28;20560;-64
2021/11/01 03:19:34;;;;;;;15.27;1.70;;;9.70;90.80;;;;;;5027259;28;20103;-64
2021/11/01 03:22:03;;;;;;;12.13;1.85;;;9.70;90.70;;;;;;5052121;28;20440;-64
2021/11/01 03:24:30;;;;;;;5.72;0.98;;;9.70;90.70;;;;;;5021703;28;20052;-63
2021/11/01 03:26:57;;;;;;;8.32;1.67;;;9.70;90.80;;;;;;5041998;28;20464;-64
2021/11/01 03:29:24;;;;;;;20.15;2.58;;;9.70;90.70;;;;;;5020730;28;20045;-63
2021/11/01 03:31:51;;;;;;;11.82;1.60;;;9.70;90.60;;;;;;5014793;28;20046;-64
2021/11/01 03:34:18;;;;;;;7.65;1.58;;;9.70;90.60;;;;;;5049890;28;20068;-66
2021/11/01 03:36:45;;;;;;;21.23;2.90;;;9.70;90.70;;;;;;5039394;28;20491;-65
2021/11/01 03:39:13;;;;;;;11.13;1.45;;;9.70;90.70;;;;;;5040575;28;20076;-64
2021/11/01 03:41:41;;;;;;;17.33;2.33;;;9.70;90.60;;;;;;5038811;28;20048;-64
2021/11/01 03:44:15;;;;;;;17.95;2.20;;;9.60;90.50;;;;;;5041058;28;20088;-64
2021/11/01 03:46:46;;;;;;;11.45;2.60;;;9.70;90.60;;;;;;5028283;28;20053;-64
2021/11/01 03:49:13;;;;;;;12.13;2.25;;;9.60;90.50;;;;;;5041195;28;20727;-63
2021/11/01 03:51:48;;;;;;;6.63;1.00;;;9.70;90.60;;;;;;5037400;28;20049;-65
2021/11/01 03:54:16;;;;;;;13.38;1.83;;;9.60;90.30;;;;;;5041571;28;20045;-63
2021/11/01 03:56:44;;;;;;;15.23;1.98;;;9.60;90.20;;;;;;5037907;28;20084;-63
2021/11/01 03:59:11;;;;;;;16.02;2.30;;;9.60;90.40;;;;;;5042955;28;20075;-63
2021/11/01 04:01:39;;;;;;;11.43;1.77;;;9.70;90.10;;;;;;5040588;28;20072;-63
2021/11/01 04:04:07;;;;;;;13.95;1.90;;;9.60;90.10;;;;;;5048621;28;20041;-64
2021/11/01 04:06:34;;;;;;;8.00;1.08;;;9.60;90.30;;;;;;5050489;28;21027;-62
2021/11/01 04:09:01;;;;;;;11.80;1.65;;;9.60;89.60;;;;;;5045375;28;20047;-63
2021/11/01 04:11:29;;;;;;;9.07;1.70;;;9.60;90.00;;;;;;5041450;28;20080;-64
2021/11/01 04:14:00;;;;;;;15.20;1.80;;;9.70;90.00;;;;;;5050032;28;20135;-64
2021/11/01 04:16:38;;;;;;;10.20;2.63;;;9.70;89.40;;;;;;5035276;28;20085;-64
2021/11/01 04:21:45;;;;;;;13.68;1.70;;;9.70;89.50;;;;;;5047682;28;20045;-63
2021/11/01 04:24:12;;;;;;;16.00;2.40;;;9.70;89.20;;;;;;5047426;28;20052;-63
2021/11/01 04:26:39;;;;;;;9.80;1.33;;;9.80;89.50;;;;;;5035537;28;20099;-64
2021/11/01 04:29:07;;;;;;;12.32;1.52;;;9.80;89.20;;;;;;5045356;28;20103;-64
2021/11/01 04:31:37;;;;;;;9.85;1.48;;;9.80;89.50;;;;;;5035832;28;20077;-64
2021/11/01 04:34:13;;;;;;;10.88;1.65;;;9.80;89.00;;;;;;5036296;28;20508;-63
2021/11/01 04:36:40;;;;;;;23.45;2.40;;;9.80;88.90;;;;;;5045300;28;20080;-64
2021/11/01 04:39:14;;;;;;;12.82;1.70;;;9.80;89.00;;;;;;5044951;28;20084;-65
2021/11/01 04:42:00;;;;;;;17.17;4.25;;;9.90;87.90;;;;;;5045320;28;20045;-66
2021/11/01 04:55:12;;;;;;;6.63;1.60;;;10.10;87.10;;;;;;5042202;28;20045;-64
2021/11/01 04:57:40;;;;;;;7.85;1.35;;;10.00;87.30;;;;;;5048625;28;20045;-64
2021/11/01 05:00:07;;;;;;;15.80;2.22;;;10.10;87.70;;;;;;5041487;28;20140;-64
2021/11/01 05:02:36;;;;;;;7.85;2.10;;;10.00;87.20;;;;;;5035269;28;20087;-64
2021/11/01 05:05:04;;;;;;;6.65;1.75;;;10.10;87.70;;;;;;5039543;28;20068;-64
2021/11/01 05:07:30;;;;;;;6.22;1.45;;;10.10;87.40;;;;;;5037329;28;20057;-63
2021/11/01 05:12:29;;;;;;;13.88;2.10;;;10.10;87.50;;;;;;5041309;28;20072;-63
2021/11/01 05:20:27;;;;;;;19.85;2.10;;;10.10;87.60;;;;;;5037265;28;20086;-65
2021/11/01 05:23:08;;;;;;;8.75;1.88;;;10.10;87.70;;;;;;5039971;28;20495;-63
2021/11/01 05:25:56;;;;;;;10.30;1.38;;;10.10;87.00;;;;;;5037755;28;20048;-65
2021/11/01 05:36:08;;;;;;;12.20;3.08;;;10.20;86.40;;;;;;5035330;28;20049;-64
2021/11/01 05:38:35;;;;;;;9.25;2.50;;;10.20;86.70;;;;;;5044639;28;20053;-64
2021/11/01 05:41:02;;;;;;;16.73;1.75;;;10.20;87.00;;;;;;5034485;28;20045;-64
2021/11/01 05:43:29;;;;;;;10.32;1.55;;;10.20;86.70;;;;;;5042200;28;20467;-64
2021/11/01 05:45:56;;;;;;;20.45;1.88;;;10.10;86.40;;;;;;5044682;28;20064;-63
2021/11/01 05:48:23;;;;;;;22.08;1.95;;;10.20;86.60;;;;;;5038344;28;20464;-64
2021/11/01 05:50:50;;;;;;;11.48;2.38;;;10.20;85.80;;;;;;5033770;28;20054;-64
2021/11/01 05:53:17;;;;;;;10.07;1.75;;;10.20;86.20;;;;;;5038743;28;20045;-64
2021/11/01 05:56:11;;;;;;;14.25;2.22;;;10.20;86.70;;;;;;5034585;28;20044;-63
2021/11/01 06:04:03;;;;;;;14.82;1.50;;;10.10;87.40;;;;;;5039740;28;20060;-64
2021/11/01 06:09:31;;;;;;;14.25;2.85;;;10.10;87.10;;;;;;5041706;28;20482;-63
2021/11/01 06:14:43;;;;;;;12.70;1.92;;;10.10;87.10;;;;;;5041992;28;20044;-63
2021/11/01 06:17:11;;;;;;;13.23;1.52;;;10.00;87.30;;;;;;5032869;28;20087;-63
2021/11/01 06:19:37;;;;;;;17.90;2.58;;;10.00;88.10;;;;;;5031879;28;20131;-64
2021/11/01 06:22:04;;;;;;;11.75;1.60;;;10.00;87.70;;;;;;5045791;28;20637;-64
2021/11/01 06:26:58;;;;;;;10.48;1.73;;;10.00;87.10;;;;;;5049134;28;20602;-63
2021/11/01 06:29:36;;;;;;;10.52;1.77;;;9.90;86.90;;;;;;5042499;28;20110;-63
2021/11/01 06:32:14;;;;;;;9.90;2.00;;;9.90;87.50;;;;;;5038833;28;20489;-66
2021/11/01 06:45:55;;;;;;;12.00;1.90;;;9.80;88.00;;;;;;5040405;28;20117;-63
2021/11/01 07:16:01;;;;;;;17.80;2.90;;;9.80;89.60;;;;;;5043121;28;20095;-64
2021/11/01 07:18:34;;;;;;;17.38;1.90;;;9.50;89.70;;;;;;5038375;28;20095;-66
2021/11/01 08:24:57;;;;;;;10.02;1.55;;;9.90;89.50;;;;;;5053729;28;20049;-63
2021/11/01 08:38:16;;;;;;;7.68;3.05;;;10.20;88.80;;;;;;5039035;28;20436;-65
2021/11/01 09:02:46;;;;;;;11.00;2.58;;;11.00;86.00;;;;;;5041944;28;20259;-65
2021/11/01 09:09:46;;;;;;;11.35;1.90;;;10.90;84.80;;;;;;5037037;28;20049;-65
2021/11/01 09:20:03;;;;;;;15.55;1.90;;;10.80;83.60;;;;;;5042136;28;20049;-65
2021/11/01 09:27:07;;;;;;;11.10;1.92;;;10.90;85.70;;;;;;5046572;28;20041;-65
2021/11/01 09:38:03;;;;;;;14.35;1.98;;;11.00;83.20;;;;;;5041677;28;20456;-64
2021/11/01 09:43:16;;;;;;;15.30;2.15;;;11.20;86.20;;;;;;5038510;28;20367;-64
2021/11/01 09:45:43;;;;;;;15.63;1.77;;;11.10;84.60;;;;;;5036655;28;20045;-65
2021/11/01 09:48:10;;;;;;;9.20;1.65;;;11.20;85.50;;;;;;5038550;28;20491;-64
2021/11/01 09:50:41;;;;;;;9.93;1.75;;;11.20;85.30;;;;;;5041091;28;20504;-65
2021/11/01 09:53:16;;;;;;;15.73;3.22;;;11.20;85.00;;;;;;5041910;28;20049;-64
2021/11/01 09:55:50;;;;;;;8.68;2.00;;;11.20;84.60;;;;;;5035185;28;20477;-65
2021/11/01 10:01:11;;;;;;;13.77;1.83;;;11.30;83.90;;;;;;5043822;28;20047;-65
2021/11/01 10:03:43;;;;;;;12.43;2.85;;;11.40;84.50;;;;;;5040970;28;20095;-64
2021/11/01 10:06:18;;;;;;;17.52;3.47;;;11.40;82.50;;;;;;5043753;28;20441;-65
2021/11/01 10:08:51;;;;;;;17.63;2.10;;;11.50;82.40;;;;;;5025066;28;20050;-64
2021/11/01 10:11:21;;;;;;;9.05;1.52;;;11.50;81.80;;;;;;5043819;28;20075;-65
2021/11/01 10:13:58;;;;;;;15.35;2.50;;;11.60;81.80;;;;;;5044300;28;20487;-65
2021/11/01 10:19:32;;;;;;;9.98;3.00;;;11.70;81.60;;;;;;4694453;28;9999981;-64
2021/11/01 10:22:24;;;;;;;14.00;2.03;;;11.80;82.40;;;;;;5036428;28;20517;-64
2021/11/01 10:24:52;;;;;;;8.57;1.63;;;11.80;81.50;;;;;;5037856;28;20102;-64
2021/11/01 10:27:29;;;;;;;7.40;2.08;;;11.90;81.80;;;;;;5035709;28;20517;-65
2021/11/01 10:30:02;;;;;;;11.73;1.83;;;12.00;77.50;;;;;;5039943;28;20046;-65
2021/11/01 10:32:30;;;;;;;7.80;1.47;;;12.00;76.70;;;;;;5041202;28;20438;-64
2021/11/01 10:35:30;;;;;;;6.68;1.38;;;12.00;76.50;;;;;;5039381;28;20045;-64
2021/11/01 10:38:20;;;;;;;14.45;1.88;;;12.00;73.30;;;;;;5043921;28;20493;-64
2021/11/01 11:13:49;;;;;;;10.38;1.35;;;12.50;76.20;;;;;;5040208;28;20397;-65
2021/11/01 11:16:47;;;;;;;9.90;1.92;;;12.60;74.60;;;;;;5022168;28;20085;-65
2021/11/01 11:19:19;;;;;;;12.05;3.17;;;12.70;74.80;;;;;;5038593;28;20061;-64
2021/11/01 11:22:11;;;;;;;9.95;1.67;;;12.70;73.30;;;;;;5029342;28;20045;-63
2021/11/01 11:30:45;;;;;;;14.15;1.67;;;12.80;72.30;;;;;;5040908;28;20450;-64
2021/11/01 11:39:20;;;;;;;6.55;1.52;;;13.00;74.30;;;;;;5039372;28;20053;-64
2021/11/01 11:48:23;;;;;;;13.40;2.35;;;12.90;70.10;;;;;;5034415;28;20112;-64
2021/11/01 11:50:41;;;;;;;12.80;1.10;;;12.90;70.60;;;;;;5036361;28;20236;-64
2021/11/01 11:53:14;;;;;;;12.52;1.80;;;12.90;74.50;;;;;;5043276;28;20322;-63
2021/11/01 11:55:42;;;;;;;7.82;1.27;;;12.90;72.50;;;;;;5042749;28;20118;-63
2021/11/01 11:58:11;;;;;;;9.23;1.50;;;12.80;71.30;;;;;;5047627;28;20061;-64
2021/11/01 12:00:39;;;;;;;13.45;1.63;;;12.80;73.60;;;;;;5053057;28;20072;-63
2021/11/01 12:03:11;;;;;;;8.85;1.95;;;12.80;72.10;;;;;;5047702;28;20048;-63
2021/11/01 12:05:51;;;;;;;11.75;1.60;;;12.90;70.70;;;;;;5049585;28;20064;-65
2021/11/01 12:08:24;;;;;;;10.43;1.15;;;12.80;71.80;;;;;;5028053;28;20045;-64
2021/11/01 12:19:18;;;;;;;6.22;1.38;;;12.90;71.00;;;;;;5041427;28;20072;-63
2021/11/01 12:21:48;;;;;;;5.57;1.30;;;13.00;69.80;;;;;;5041208;28;20045;-63
2021/11/01 12:24:21;;;;;;;9.73;2.13;;;13.00;70.90;;;;;;5038903;28;20049;-63
2021/11/01 12:27:02;;;;;;;6.10;1.20;;;13.10;69.60;;;;;;5040377;28;20063;-64
2021/11/01 12:29:30;;;;;;;9.75;1.45;;;13.10;67.90;;;;;;5042425;28;20045;-63
2021/11/01 12:32:04;;;;;;;6.97;1.30;;;13.10;71.40;;;;;;5043894;28;20057;-63
2021/11/01 12:34:45;;;;;;;13.93;1.23;;;13.20;71.20;;;;;;5041172;28;20041;-62
2021/11/01 12:37:21;;;;;;;13.85;3.17;;;13.30;72.80;;;;;;5042247;28;21045;-63
2021/11/01 12:39:57;;;;;;;12.75;2.38;;;13.20;68.00;;;;;;5042633;28;20049;-64
2021/11/01 12:58:54;;;;;;;8.20;1.50;;;13.70;70.40;;;;;;5042123;28;20104;-63
2021/11/01 13:01:22;;;;;;;10.48;1.70;;;13.70;67.70;;;;;;5041896;28;20076;-63
2021/11/01 13:03:57;;;;;;;7.47;1.10;;;13.60;68.10;;;;;;5043540;28;20117;-63
2021/11/01 13:06:58;;;;;;;7.50;1.08;;;13.50;67.10;;;;;;5043422;28;20076;-63
2021/11/01 13:09:26;;;;;;;6.88;1.30;;;13.50;65.90;;;;;;5046302;28;20535;-64
2021/11/01 13:14:47;;;;;;;7.57;1.20;;;13.60;65.90;;;;;;5046948;28;20346;-64
2021/11/01 13:20:05;;;;;;;5.40;1.35;;;13.60;65.20;;;;;;5047018;28;20060;-63
2021/11/01 13:22:45;;;;;;;9.00;1.10;;;13.70;66.50;;;;;;5045659;28;20097;-63
2021/11/01 13:25:22;;;;;;;5.57;1.13;;;13.70;64.30;;;;;;5043317;28;20045;-63
2021/11/01 13:38:44;;;;;;;8.35;1.60;;;14.10;63.70;;;;;;5052150;28;20416;-63
2021/11/01 13:41:15;;;;;;;8.15;1.08;;;14.00;64.40;;;;;;5050181;28;20041;-63
2021/11/01 13:43:44;;;;;;;14.60;2.50;;;14.10;65.50;;;;;;5048442;28;20076;-64
2021/11/01 13:46:12;;;;;;;11.18;2.42;;;14.10;68.40;;;;;;5049517;28;20539;-63
2021/11/01 13:48:39;;;;;;;6.75;1.77;;;14.10;66.80;;;;;;5046059;28;20068;-64
2021/11/01 13:51:13;;;;;;;2.10;0.80;;;14.00;66.50;;;;;;5045423;28;20065;-63
2021/11/01 13:56:41;;;;;;;3.75;0.85;;;13.60;70.40;;;;;;5049381;28;20087;-63
2021/11/01 13:59:23;;;;;;;8.18;1.33;;;13.30;72.10;;;;;;5046210;28;20041;-63
2021/11/01 14:02:11;;;;;;;3.13;0.95;;;13.20;72.80;;;;;;5047247;28;20115;-63
2021/11/01 14:13:11;;;;;;;3.70;1.08;;;13.40;73.70;;;;;;5047104;28;20068;-64
2021/11/01 14:28:59;;;;;;;15.30;1.67;;;13.80;73.80;;;;;;5043319;28;20068;-63
2021/11/01 15:04:51;;;;;;;8.27;2.15;;;14.60;66.60;;;;;;5046451;28;20060;-64
2021/11/01 15:10:19;;;;;;;4.32;1.25;;;15.70;64.20;;;;;;5048302;28;20049;-62
2021/11/01 15:20:41;;;;;;;3.28;1.10;;;17.10;63.90;;;;;;5037058;28;20099;-63
2021/11/01 15:37:15;;;;;;;3.97;1.23;;;15.90;58.30;;;;;;5047380;28;20099;-63
2021/11/01 16:18:16;;;;;;;6.43;1.88;;;12.40;69.60;;;;;;5050960;28;20083;-62
2021/11/01 16:20:43;;;;;;;5.55;1.10;;;12.30;69.90;;;;;;5043939;28;20111;-63
2021/11/01 16:26:00;;;;;;;5.93;1.10;;;12.20;70.40;;;;;;5051270;28;20489;-62
2021/11/01 16:28:32;;;;;;;6.95;0.95;;;12.10;70.90;;;;;;5044633;28;20443;-63
2021/11/01 16:33:49;;;;;;;4.30;1.08;;;12.00;72.30;;;;;;5052457;28;20107;-63
2021/11/01 16:36:44;;;;;;;6.18;2.28;;;12.00;72.60;;;;;;5048925;28;20044;-63
2021/11/01 16:39:18;;;;;;;6.13;1.13;;;11.90;73.40;;;;;;5050104;28;20045;-63
2021/11/01 16:41:46;;;;;;;3.85;1.00;;;11.80;73.40;;;;;;5048005;28;20075;-63
2021/11/01 16:46:45;;;;;;;2.95;0.85;;;11.60;74.50;;;;;;5048852;28;20053;-63
2021/11/01 16:49:12;;;;;;;1.92;0.85;;;11.50;75.50;;;;;;5048057;28;20291;-63
2021/11/01 16:51:39;;;;;;;4.00;1.00;;;11.50;75.30;;;;;;5046838;28;21334;-63
2021/11/01 16:54:09;;;;;;;11.63;2.42;;;11.40;75.60;;;;;;5039084;28;20209;-63
2021/11/01 16:57:21;;;;;;;6.57;1.58;;;11.30;76.10;;;;;;5046792;28;20119;-63
2021/11/01 17:02:32;;;;;;;10.20;1.85;;;11.10;77.00;;;;;;5042435;28;20045;-63
2021/11/01 17:05:07;;;;;;;5.47;1.23;;;11.10;77.90;;;;;;5042423;28;20537;-63
2021/11/01 17:21:54;;;;;;;6.78;1.27;;;10.90;79.30;;;;;;5046146;28;20295;-64
2021/11/01 17:27:07;;;;;;;7.18;1.17;;;10.80;79.60;;;;;;5043985;28;20072;-63
2021/11/01 17:37:30;;;;;;;2.88;1.10;;;10.60;81.00;;;;;;5055760;28;20056;-62
2021/11/01 18:51:40;;;;;;;11.27;1.98;;;9.60;85.00;;;;;;5055813;28;20099;-64
2021/11/01 18:54:18;;;;;;;5.60;2.17;;;9.50;85.10;;;;;;5057659;28;20537;-63
2021/11/01 18:56:46;;;;;;;2.65;1.60;;;9.40;86.70;;;;;;5060499;28;20053;-65
2021/11/01 18:59:13;;;;;;;6.50;1.90;;;9.30;85.70;;;;;;5057442;28;20055;-63
2021/11/01 19:01:43;;;;;;;8.95;1.98;;;9.30;85.90;;;;;;5053567;28;20069;-63
2021/11/01 19:04:16;;;;;;;5.47;1.88;;;9.20;86.00;;;;;;5023722;28;20357;-63
2021/11/01 20:12:42;;;;;;;7.13;2.17;;;8.30;89.60;;;;;;5055370;28;20045;-64
2021/11/01 21:25:43;;;;;;;5.68;2.85;;;7.60;90.60;;;;;;5048222;28;20109;-63
2021/11/01 21:28:10;;;;;;;5.35;2.92;;;7.70;90.60;;;;;;5037598;28;20103;-63
2021/11/01 21:30:36;;;;;;;14.40;3.60;;;7.70;90.60;;;;;;5061519;28;20231;-64
2021/11/01 21:33:03;;;;;;;10.18;3.00;;;7.70;90.60;;;;;;5054809;28;20041;-63
2021/11/01 21:35:40;;;;;;;6.65;2.22;;;7.70;90.60;;;;;;5057375;28;20044;-64
2021/11/01 21:38:06;;;;;;;7.85;1.85;;;7.70;90.60;;;;;;5051297;28;20099;-65
2021/11/01 21:40:33;;;;;;;4.35;2.08;;;7.70;90.70;;;;;;5060830;28;20041;-63
2021/11/01 21:43:00;;;;;;;5.38;2.40;;;7.80;90.70;;;;;;5033899;28;20123;-62
2021/11/01 21:45:43;;;;;;;7.28;2.88;;;7.80;90.70;;;;;;5052511;28;20113;-64
2021/11/01 21:48:10;;;;;;;6.53;2.10;;;7.80;90.60;;;;;;5052978;28;20087;-63
2021/11/01 21:50:37;;;;;;;4.93;2.05;;;7.80;90.60;;;;;;5058653;28;20049;-64
2021/11/01 21:53:05;;;;;;;7.60;2.35;;;7.70;90.70;;;;;;5028592;28;20045;-63
2021/11/01 21:55:32;;;;;;;5.88;2.50;;;7.80;90.70;;;;;;5060667;28;20041;-63
2021/11/01 22:20:08;;;;;;;5.15;2.30;;;7.50;91.10;;;;;;5062633;28;20095;-63
2021/11/01 22:25:16;;;;;;;4.75;2.25;;;7.50;91.10;;;;;;5059500;28;20046;-63
2021/11/01 22:38:51;;;;;;;7.30;3.63;;;7.30;91.30;;;;;;5063953;28;20075;-63
2021/11/01 22:41:46;;;;;;;6.95;2.70;;;7.30;91.40;;;;;;5056255;28;20381;-62
2021/11/01 22:57:29;;;;;;;5.40;2.38;;;7.20;91.80;;;;;;5049107;28;20103;-63
2021/11/01 22:59:56;;;;;;;17.27;2.97;;;7.10;91.80;;;;;;5064565;28;20041;-64
2021/11/01 23:02:23;;;;;;;7.50;3.15;;;7.10;91.80;;;;;;5056325;28;20053;-64
2021/11/01 23:05:12;;;;;;;7.93;2.03;;;7.10;91.80;;;;;;5063979;28;20068;-63
2021/11/01 23:32:36;;;;;;;11.55;3.33;;;7.10;92.00;;;;;;5061114;28;20108;-63
2021/11/01 23:35:03;;;;;;;9.65;3.03;;;7.00;92.10;;;;;;5056058;28;20095;-63
2021/11/01 23:37:30;;;;;;;12.73;3.35;;;7.00;92.20;;;;;;5056108;28;20042;-63
2021/11/01 23:39:57;;;;;;;10.43;2.92;;;6.90;92.10;;;;;;5062357;28;20057;-64
2021/11/01 23:42:24;;;;;;;6.03;2.45;;;6.90;92.20;;;;;;5058037;28;20045;-63
2021/11/01 23:44:54;;;;;;;7.65;2.50;;;6.80;92.20;;;;;;5037402;28;20049;-63
2021/11/01 23:47:22;;;;;;;8.95;3.03;;;6.80;92.50;;;;;;5053485;28;20114;-64
2021/11/01 23:49:49;;;;;;;4.97;2.00;;;6.90;92.20;;;;;;5060227;28;20056;-63
2021/11/01 23:52:17;;;;;;;9.38;3.22;;;6.90;92.20;;;;;;5061967;28;20041;-63
2021/11/01 23:54:44;;;;;;;5.18;2.20;;;6.90;92.10;;;;;;5058109;28;20538;-62
2021/11/01 23:57:12;;;;;;;6.60;2.70;;;7.00;92.20;;;;;;5060716;28;20069;-63
2021/11/01 23:59:38;;;;;;;8.00;2.38;;;6.80;92.10;;;;;;5046228;28;20568;-62
